createdAt,value
2018-05-18T00:01:03.546Z,55.67
2018-05-18T00:03:32.654Z,57.07
2018-05-18T00:06:01.746Z,56.23
2018-05-18T00:08:30.854Z,56.40
2018-05-18T00:10:59.951Z,53.80
2018-05-18T00:13:29.058Z,52.27
2018-05-18T00:15:58.156Z,49.73
2018-05-18T00:18:27.263Z,49.87
2018-05-18T00:20:56.370Z,55.10
2018-05-18T00:23:25.478Z,54.47
2018-05-18T00:25:54.587Z,53.90
2018-05-18T00:28:23.698Z,51.20
2018-05-18T00:30:52.804Z,52.90
2018-05-18T00:33:21.918Z,55.93
2018-05-18T00:35:51.019Z,53.40
2018-05-18T00:38:20.130Z,52.43
2018-05-18T00:40:49.235Z,53.10
2018-05-18T00:43:18.335Z,53.33
2018-05-18T00:45:47.447Z,51.37
2018-05-18T00:48:16.552Z,51.70
2018-05-18T00:50:45.663Z,52.17
2018-05-18T00:53:14.754Z,50.77
2018-05-18T00:55:43.862Z,51.63
2018-05-18T00:58:12.967Z,48.83
2018-05-18T01:00:42.076Z,53.53
2018-05-18T01:03:11.171Z,51.50
2018-05-18T01:05:40.292Z,49.23
2018-05-18T01:08:09.387Z,51.27
2018-05-18T01:10:38.496Z,49.37
2018-05-18T01:13:07.594Z,51.73
2018-05-18T01:15:36.687Z,49.47
2018-05-18T01:18:05.782Z,47.80
2018-05-18T01:20:34.894Z,49.53
2018-05-18T01:23:03.996Z,51.30
2018-05-18T01:25:33.103Z,47.13
2018-05-18T01:28:02.202Z,50.77
2018-05-18T01:30:31.955Z,50.70
2018-05-18T01:33:01.046Z,52.40
2018-05-18T01:35:30.163Z,50.43
2018-05-18T01:37:59.271Z,49.17
2018-05-18T01:40:28.388Z,52.20
2018-05-18T01:42:57.479Z,55.00
2018-05-18T01:45:26.591Z,55.63
2018-05-18T01:47:55.691Z,50.87
2018-05-18T01:50:24.800Z,58.23
2018-05-18T01:52:53.902Z,53.33
2018-05-18T01:55:23.011Z,61.60
2018-05-18T01:57:52.107Z,56.30
2018-05-18T02:00:21.209Z,52.27
2018-05-18T02:02:50.314Z,49.67
2018-05-18T02:05:19.422Z,49.67
2018-05-18T02:07:48.581Z,42.20
2018-05-18T02:10:17.696Z,47.53
2018-05-18T02:12:46.802Z,47.60
2018-05-18T02:15:15.907Z,49.07
2018-05-18T02:17:45.012Z,56.27
2018-05-18T02:20:14.115Z,56.67
2018-05-18T02:22:43.223Z,50.73
2018-05-18T02:25:12.334Z,53.83
2018-05-18T02:27:41.435Z,50.40
2018-05-18T02:30:10.541Z,53.77
2018-05-18T02:32:39.637Z,53.03
2018-05-18T02:35:08.754Z,59.17
2018-05-18T02:37:37.844Z,56.43
2018-05-18T02:40:06.954Z,59.37
2018-05-18T02:42:36.055Z,64.47
2018-05-18T02:45:05.166Z,59.37
2018-05-18T02:47:34.263Z,56.20
2018-05-18T02:50:03.378Z,57.43
2018-05-18T02:52:32.479Z,60.00
2018-05-18T02:55:01.583Z,51.87
2018-05-18T02:57:30.679Z,54.20
2018-05-18T02:59:59.791Z,55.33
2018-05-18T03:02:28.885Z,51.10
2018-05-18T03:04:57.996Z,50.80
2018-05-18T03:07:27.099Z,51.30
2018-05-18T03:09:56.202Z,52.57
2018-05-18T03:12:25.306Z,51.40
2018-05-18T03:14:54.415Z,51.37
2018-05-18T03:17:23.518Z,50.97
2018-05-18T03:19:52.622Z,47.50
2018-05-18T03:22:21.718Z,53.53
2018-05-18T03:24:50.823Z,51.60
2018-05-18T03:27:19.924Z,48.50
2018-05-18T03:29:49.022Z,46.00
2018-05-18T03:32:18.141Z,48.30
2018-05-18T03:34:47.230Z,47.77
2018-05-18T03:37:16.327Z,47.67
2018-05-18T03:39:45.439Z,45.83
2018-05-18T03:42:14.542Z,49.37
2018-05-18T03:44:43.656Z,45.23
2018-05-18T03:47:12.753Z,44.97
2018-05-18T03:49:41.871Z,47.53
2018-05-18T03:52:10.975Z,45.93
2018-05-18T03:54:40.082Z,45.60
2018-05-18T03:57:09.174Z,46.33
2018-05-18T03:59:38.282Z,44.17
2018-05-18T04:02:13.218Z,42.97
2018-05-18T04:04:48.298Z,47.47
2018-05-18T04:07:23.226Z,46.47
2018-05-18T04:09:52.347Z,45.17
2018-05-18T04:12:21.446Z,46.57
2018-05-18T04:14:50.541Z,45.10
2018-05-18T04:17:19.651Z,46.20
2018-05-18T04:19:48.839Z,44.53
2018-05-18T04:22:17.845Z,47.50
2018-05-18T04:24:46.937Z,46.30
2018-05-18T04:27:16.034Z,39.97
2018-05-18T04:29:45.131Z,42.17
2018-05-18T04:32:14.238Z,42.00
2018-05-18T04:34:43.331Z,42.20
2018-05-18T04:37:12.440Z,42.00
2018-05-18T04:39:41.529Z,39.10
2018-05-18T04:42:10.639Z,38.70
2018-05-18T04:44:39.732Z,38.27
2018-05-18T04:47:08.838Z,40.17
2018-05-18T04:49:37.938Z,42.70
2018-05-18T04:52:07.042Z,38.60
2018-05-18T04:54:36.142Z,39.60
2018-05-18T04:57:05.241Z,36.57
2018-05-18T04:59:34.344Z,38.50
2018-05-18T05:02:03.441Z,36.50
2018-05-18T05:04:32.534Z,39.50
2018-05-18T05:07:01.638Z,38.83
2018-05-18T05:09:30.743Z,39.30
2018-05-18T05:11:59.848Z,37.43
2018-05-18T05:14:28.938Z,39.00
2018-05-18T05:16:58.050Z,40.50
2018-05-18T05:19:27.148Z,40.00
2018-05-18T05:21:56.259Z,38.77
2018-05-18T05:24:25.379Z,38.17
2018-05-18T05:26:54.471Z,38.97
2018-05-18T05:29:23.567Z,41.17
2018-05-18T05:31:52.689Z,40.07
2018-05-18T05:34:21.791Z,39.73
2018-05-18T05:36:50.887Z,38.00
2018-05-18T05:39:19.992Z,38.60
2018-05-18T05:41:49.099Z,37.07
2018-05-18T05:44:18.206Z,39.97
2018-05-18T05:46:47.317Z,38.30
2018-05-18T05:49:16.414Z,43.10
2018-05-18T05:51:45.532Z,39.10
2018-05-18T05:54:14.640Z,38.50
2018-05-18T05:56:43.748Z,35.20
2018-05-18T05:59:12.851Z,38.30
2018-05-18T06:01:41.961Z,36.53
2018-05-18T06:04:11.063Z,35.97
2018-05-18T06:06:40.184Z,33.60
2018-05-18T06:09:11.855Z,33.40
2018-05-18T06:11:40.966Z,35.67
2018-05-18T06:14:10.091Z,35.40
2018-05-18T06:16:39.195Z,34.90
2018-05-18T06:19:08.314Z,33.10
2018-05-18T06:21:37.398Z,31.90
2018-05-18T06:24:08.057Z,34.10
2018-05-18T06:26:37.163Z,35.07
2018-05-18T06:29:06.263Z,33.07
2018-05-18T06:31:35.371Z,35.00
2018-05-18T06:34:04.471Z,35.63
2018-05-18T06:36:33.583Z,34.53
2018-05-18T06:39:02.687Z,37.10
2018-05-18T06:41:31.830Z,36.50
2018-05-18T06:44:15.632Z,35.17
2018-05-18T06:46:44.767Z,33.77
2018-05-18T06:49:13.874Z,34.57
2018-05-18T06:51:43.012Z,30.60
2018-05-18T06:54:12.140Z,29.20
2018-05-18T06:56:41.315Z,29.63
2018-05-18T06:59:10.473Z,29.23
2018-05-18T07:01:39.614Z,29.40
2018-05-18T07:04:08.805Z,30.80
2018-05-18T07:06:37.842Z,29.77
2018-05-18T07:09:06.967Z,26.00
2018-05-18T07:11:36.076Z,26.07
2018-05-18T07:14:05.215Z,27.20
2018-05-18T07:16:34.337Z,28.33
2018-05-18T07:19:03.462Z,28.53
2018-05-18T07:21:35.898Z,27.10
2018-05-18T07:24:05.383Z,26.13
2018-05-18T07:26:34.553Z,27.07
2018-05-18T07:29:03.663Z,29.00
2018-05-18T07:31:32.768Z,26.17
2018-05-18T07:34:01.895Z,26.27
2018-05-18T07:36:31.026Z,23.70
2018-05-18T07:39:00.218Z,22.47
2018-05-18T07:41:29.314Z,23.10
2018-05-18T07:43:58.444Z,23.27
2018-05-18T07:46:27.529Z,25.23
2018-05-18T07:48:56.644Z,23.67
2018-05-18T07:51:25.743Z,21.80
2018-05-18T07:53:54.867Z,18.80
2018-05-18T07:56:23.975Z,20.13
2018-05-18T07:58:53.085Z,20.93
2018-05-18T08:01:22.187Z,19.87
2018-05-18T08:03:51.304Z,19.93
2018-05-18T08:06:20.400Z,19.70
2018-05-18T08:08:49.513Z,20.93
2018-05-18T08:11:19.557Z,19.93
2018-05-18T08:13:48.672Z,18.27
2018-05-18T08:16:17.782Z,18.50
2018-05-18T08:18:46.900Z,19.30
2018-05-18T08:21:16.003Z,17.63
2018-05-18T08:23:45.111Z,18.27
2018-05-18T08:26:14.218Z,17.13
2018-05-18T08:28:49.219Z,19.30
2018-05-18T08:31:18.324Z,19.10
2018-05-18T08:33:47.444Z,19.70
2018-05-18T08:36:16.549Z,19.20
2018-05-18T08:38:45.854Z,20.00
2018-05-18T08:41:14.950Z,20.30
2018-05-18T08:43:44.060Z,18.47
2018-05-18T08:46:13.174Z,16.97
2018-05-18T08:48:42.300Z,16.63
2018-05-18T08:51:11.404Z,16.73
2018-05-18T08:53:40.514Z,18.20
2018-05-18T08:56:09.620Z,17.10
2018-05-18T08:58:38.731Z,16.20
2018-05-18T09:01:07.839Z,16.67
2018-05-18T09:03:36.955Z,14.83
2018-05-18T09:06:06.063Z,15.20
2018-05-18T09:08:35.172Z,14.63
2018-05-18T09:11:04.338Z,15.27
2018-05-18T09:13:33.454Z,16.03
2018-05-18T09:16:02.555Z,14.80
2018-05-18T09:18:31.745Z,16.10
2018-05-18T09:21:00.766Z,15.20
2018-05-18T09:23:29.883Z,16.27
2018-05-18T09:25:58.984Z,14.87
2018-05-18T09:28:28.091Z,15.33
2018-05-18T09:30:57.203Z,12.87
2018-05-18T09:33:26.313Z,15.60
2018-05-18T09:35:55.413Z,15.70
2018-05-18T09:38:24.541Z,15.60
2018-05-18T09:40:53.643Z,15.83
2018-05-18T09:43:22.771Z,16.53
2018-05-18T09:45:51.863Z,15.23
2018-05-18T09:48:20.985Z,15.00
2018-05-18T09:50:51.035Z,15.30
2018-05-18T09:53:20.167Z,12.37
2018-05-18T09:55:49.288Z,13.63
2018-05-18T09:58:18.401Z,11.37
2018-05-18T10:00:47.572Z,11.27
2018-05-18T10:03:16.620Z,11.00
2018-05-18T10:05:45.728Z,8.97
2018-05-18T10:08:14.853Z,9.93
2018-05-18T10:10:44.007Z,11.40
2018-05-18T10:13:13.133Z,11.20
2018-05-18T10:15:42.243Z,10.53
2018-05-18T10:18:11.379Z,11.20
2018-05-18T10:20:40.511Z,11.80
2018-05-18T10:23:10.637Z,14.00
2018-05-18T10:25:39.760Z,12.47
2018-05-18T10:28:08.870Z,11.50
2018-05-18T10:30:37.962Z,11.10
2018-05-18T10:33:07.083Z,11.00
2018-05-18T10:35:36.187Z,10.40
2018-05-18T10:38:05.306Z,11.30
2018-05-18T10:40:34.409Z,11.13
2018-05-18T10:43:03.532Z,9.93
2018-05-18T10:45:32.636Z,10.23
2018-05-18T10:48:01.759Z,8.87
2018-05-18T10:50:30.892Z,9.20
2018-05-18T10:53:00.020Z,7.47
2018-05-18T10:55:29.099Z,7.40
2018-05-18T10:57:58.203Z,8.87
2018-05-18T11:00:27.373Z,8.20
2018-05-18T11:02:56.484Z,8.60
2018-05-18T11:05:25.712Z,9.10
2018-05-18T11:07:54.761Z,9.93
2018-05-18T11:10:23.881Z,7.40
2018-05-18T11:12:52.983Z,7.47
2018-05-18T11:15:22.090Z,7.40
2018-05-18T11:17:51.192Z,8.17
2018-05-18T11:20:20.303Z,9.20
2018-05-18T11:22:49.407Z,8.43
2018-05-18T11:25:18.521Z,7.30
2018-05-18T11:27:48.520Z,8.43
2018-05-18T11:30:17.636Z,7.83
2018-05-18T11:32:46.738Z,6.83
2018-05-18T11:35:15.847Z,6.33
2018-05-18T11:37:44.947Z,6.80
2018-05-18T11:40:14.047Z,7.70
2018-05-18T11:42:43.155Z,8.00
2018-05-18T11:45:12.267Z,7.63
2018-05-18T11:47:41.404Z,8.23
2018-05-18T11:50:16.337Z,7.87
2018-05-18T11:52:45.423Z,8.30
2018-05-18T11:55:14.533Z,7.00
2018-05-18T11:57:43.695Z,7.80
2018-05-18T12:00:12.790Z,7.97
2018-05-18T12:02:41.923Z,6.80
2018-05-18T12:05:11.107Z,8.00
2018-05-18T12:07:40.202Z,8.23
2018-05-18T12:10:09.337Z,9.30
2018-05-18T12:12:38.549Z,8.87
2018-05-18T12:15:07.651Z,8.90
2018-05-18T12:17:36.751Z,7.80
2018-05-18T12:20:05.860Z,8.23
2018-05-18T12:22:34.967Z,8.27
2018-05-18T12:25:04.076Z,7.67
2018-05-18T12:27:33.185Z,7.90
2018-05-18T12:30:02.290Z,8.73
2018-05-18T12:32:31.392Z,8.57
2018-05-18T12:35:00.487Z,8.13
2018-05-18T12:37:29.614Z,9.07
2018-05-18T12:39:58.878Z,8.77
2018-05-18T12:42:28.066Z,8.50
2018-05-18T12:44:57.223Z,7.60
2018-05-18T12:47:26.351Z,7.37
2018-05-18T12:50:01.288Z,8.00
2018-05-18T12:52:30.419Z,8.00
2018-05-18T12:54:59.591Z,8.73
2018-05-18T12:57:28.800Z,8.87
2018-05-18T12:59:59.881Z,9.83
2018-05-18T13:02:34.903Z,7.60
2018-05-18T13:05:09.252Z,8.90
2018-05-18T13:07:38.533Z,8.63
2018-05-18T13:10:12.750Z,8.97
2018-05-18T13:12:41.952Z,8.23
2018-05-18T13:15:11.744Z,7.33
2018-05-18T13:17:40.840Z,7.40
2018-05-18T13:20:09.960Z,8.13
2018-05-18T13:22:39.059Z,9.07
2018-05-18T13:25:08.894Z,7.80
2018-05-18T13:27:38.063Z,8.43
2018-05-18T13:30:07.185Z,7.20
2018-05-18T13:32:36.316Z,7.20
2018-05-18T13:35:05.471Z,7.60
2018-05-18T13:37:34.591Z,7.20
2018-05-18T13:40:07.190Z,8.60
2018-05-18T13:42:36.342Z,9.47
2018-05-18T13:45:05.491Z,8.83
2018-05-18T13:47:34.620Z,8.03
2018-05-18T13:50:03.751Z,7.60
2018-05-18T13:52:32.871Z,7.60
2018-05-18T13:55:02.008Z,8.47
2018-05-18T13:57:31.128Z,7.67
2018-05-18T14:00:00.292Z,7.80
2018-05-18T14:02:29.426Z,7.67
2018-05-18T14:04:58.528Z,7.57
2018-05-18T14:07:27.662Z,7.97
2018-05-18T14:09:56.786Z,7.40
2018-05-18T14:12:25.943Z,7.23
2018-05-18T14:14:55.050Z,7.97
2018-05-18T14:17:24.172Z,8.13
2018-05-18T14:19:53.331Z,8.00
2018-05-18T14:22:22.504Z,7.97
2018-05-18T14:24:51.655Z,7.40
2018-05-18T14:27:20.788Z,7.80
2018-05-18T14:29:49.912Z,8.30
2018-05-18T14:32:19.176Z,8.43
2018-05-18T14:34:48.311Z,8.10
2018-05-18T14:37:17.743Z,6.40
2018-05-18T14:39:47.081Z,8.30
2018-05-18T14:42:16.293Z,7.60
2018-05-18T14:44:45.396Z,7.33
2018-05-18T14:47:14.510Z,7.80
2018-05-18T14:49:43.608Z,7.37
2018-05-18T14:52:12.721Z,7.13
2018-05-18T14:54:41.960Z,7.20
2018-05-18T14:57:11.079Z,6.43
2018-05-18T14:59:40.203Z,6.97
2018-05-18T15:02:09.346Z,7.97
2018-05-18T15:04:38.484Z,7.77
2018-05-18T15:07:07.636Z,7.80
2018-05-18T15:09:36.764Z,8.70
2018-05-18T15:12:06.049Z,7.37
2018-05-18T15:14:35.282Z,6.43
2018-05-18T15:17:04.680Z,7.70
2018-05-18T15:19:33.885Z,8.30
2018-05-18T15:22:03.276Z,8.30
2018-05-18T15:24:32.522Z,7.50
2018-05-18T15:27:02.125Z,6.93
2018-05-18T15:29:31.259Z,7.93
2018-05-18T15:32:00.380Z,7.47
2018-05-18T15:34:29.533Z,8.00
2018-05-18T15:36:58.660Z,8.57
2018-05-18T15:39:27.760Z,7.10
2018-05-18T15:41:56.885Z,8.83
2018-05-18T15:44:25.987Z,9.10
2018-05-18T15:46:55.099Z,8.50
2018-05-18T15:49:24.230Z,8.23
2018-05-18T15:51:53.420Z,8.10
2018-05-18T15:54:22.510Z,7.33
2018-05-18T15:56:51.627Z,7.70
2018-05-18T15:59:20.797Z,7.03
2018-05-18T16:01:50.048Z,7.90
2018-05-18T16:04:19.326Z,7.97
2018-05-18T16:06:48.460Z,8.90
2018-05-18T16:09:17.749Z,9.07
2018-05-18T16:11:47.012Z,7.80
2018-05-18T16:14:16.109Z,6.80
2018-05-18T16:16:45.316Z,7.13
2018-05-18T16:19:14.428Z,7.77
2018-05-18T16:21:47.247Z,7.77
2018-05-18T16:24:16.348Z,6.90
2018-05-18T16:26:45.512Z,6.10
2018-05-18T16:29:14.604Z,6.20
2018-05-18T16:31:43.713Z,6.53
2018-05-18T16:34:12.815Z,8.33
2018-05-18T16:36:41.957Z,6.33
2018-05-18T16:39:11.052Z,8.70
2018-05-18T16:41:40.174Z,7.37
2018-05-18T16:44:09.321Z,6.83
2018-05-18T16:46:38.446Z,6.20
2018-05-18T16:49:07.543Z,7.27
2018-05-18T16:51:36.650Z,6.83
2018-05-18T16:54:05.807Z,6.40
2018-05-18T16:56:34.920Z,6.77
2018-05-18T16:59:04.063Z,5.13
2018-05-18T17:01:33.207Z,5.40
2018-05-18T17:04:02.316Z,5.47
2018-05-18T17:06:31.487Z,5.53
2018-05-18T17:09:00.520Z,6.03
2018-05-18T17:11:29.641Z,5.03
2018-05-18T17:13:58.740Z,6.07
2018-05-18T17:16:27.844Z,5.90
2018-05-18T17:18:56.947Z,6.73
2018-05-18T17:21:26.061Z,4.93
2018-05-18T17:23:55.221Z,5.80
2018-05-18T17:26:24.323Z,5.80
2018-05-18T17:28:53.419Z,5.77
2018-05-18T17:31:22.544Z,6.37
2018-05-18T17:33:51.666Z,4.97
2018-05-18T17:36:20.768Z,5.23
2018-05-18T17:38:50.299Z,4.97
2018-05-18T17:41:19.418Z,5.20
2018-05-18T17:43:48.515Z,5.00
2018-05-18T17:46:17.719Z,4.70
2018-05-18T17:48:46.754Z,5.17
2018-05-18T17:51:15.841Z,5.07
2018-05-18T17:53:44.950Z,4.40
2018-05-18T17:56:14.051Z,4.57
2018-05-18T17:58:43.159Z,5.20
2018-05-18T18:01:12.272Z,5.70
2018-05-18T18:03:41.392Z,4.43
2018-05-18T18:06:10.796Z,4.50
2018-05-18T18:08:39.980Z,5.13
2018-05-18T18:11:09.183Z,5.07
2018-05-18T18:13:38.291Z,4.63
2018-05-18T18:16:07.417Z,4.93
2018-05-18T18:18:36.548Z,5.23
2018-05-18T18:21:05.656Z,5.00
2018-05-18T18:23:34.816Z,5.30
2018-05-18T18:26:03.946Z,5.37
2018-05-18T18:28:33.145Z,5.00
2018-05-18T18:31:02.240Z,5.93
2018-05-18T18:33:31.336Z,5.50
2018-05-18T18:36:00.443Z,5.53
2018-05-18T18:38:29.556Z,5.37
2018-05-18T18:40:58.827Z,5.53
2018-05-18T18:43:27.952Z,6.07
2018-05-18T18:45:57.070Z,5.17
2018-05-18T18:48:26.182Z,5.37
2018-05-18T18:50:55.303Z,5.47
2018-05-18T18:53:24.471Z,5.20
2018-05-18T18:55:53.608Z,5.63
2018-05-18T18:58:22.752Z,5.13
2018-05-18T19:00:51.851Z,5.60
2018-05-18T19:03:20.951Z,6.00
2018-05-18T19:05:50.059Z,6.07
2018-05-18T19:08:19.249Z,7.03
2018-05-18T19:10:48.291Z,6.80
2018-05-18T19:13:17.415Z,6.50
2018-05-18T19:15:46.544Z,5.63
2018-05-18T19:18:21.885Z,7.60
2018-05-18T19:20:51.164Z,6.93
2018-05-18T19:23:20.363Z,6.97
2018-05-18T19:25:49.582Z,9.60
2018-05-18T19:28:18.735Z,7.27
2018-05-18T19:30:47.840Z,9.40
2018-05-18T19:33:16.975Z,8.10
2018-05-18T19:35:46.121Z,10.03
2018-05-18T19:38:15.235Z,8.37
2018-05-18T19:40:47.709Z,8.30
2018-05-18T19:43:16.842Z,8.33
2018-05-18T19:45:46.080Z,9.10
2018-05-18T19:48:16.209Z,8.87
2018-05-18T19:50:46.059Z,8.90
2018-05-18T19:53:16.927Z,9.87
2018-05-18T19:55:46.465Z,9.70
2018-05-18T19:58:15.767Z,9.97
2018-05-18T20:00:44.893Z,8.67
2018-05-18T20:03:14.330Z,10.17
2018-05-18T20:05:43.638Z,8.30
2018-05-18T20:08:13.218Z,8.83
2018-05-18T20:10:42.972Z,9.40
2018-05-18T20:13:12.227Z,8.60
2018-05-18T20:15:41.333Z,8.53
2018-05-18T20:18:10.454Z,9.20
2018-05-18T20:20:39.554Z,9.27
2018-05-18T20:23:08.791Z,9.60
2018-05-18T20:25:37.883Z,8.90
2018-05-18T20:28:06.995Z,9.20
2018-05-18T20:30:36.094Z,9.70
2018-05-18T20:33:05.258Z,9.63
2018-05-18T20:35:34.364Z,8.10
2018-05-18T20:38:03.554Z,8.83
2018-05-18T20:40:32.688Z,8.47
2018-05-18T20:43:01.840Z,8.70
2018-05-18T20:45:30.953Z,9.80
2018-05-18T20:48:00.055Z,9.50
2018-05-18T20:50:29.164Z,8.90
2018-05-18T20:52:58.266Z,8.23
2018-05-18T20:55:27.362Z,7.63
2018-05-18T20:57:56.463Z,8.70
2018-05-18T21:00:25.563Z,8.83
2018-05-18T21:02:54.670Z,8.23
2018-05-18T21:05:23.778Z,8.30
2018-05-18T21:07:52.899Z,9.33
2018-05-18T21:10:22.003Z,8.40
2018-05-18T21:12:51.110Z,8.40
2018-05-18T21:15:20.214Z,8.67
2018-05-18T21:17:49.322Z,8.10
2018-05-18T21:20:18.423Z,7.50
2018-05-18T21:22:47.528Z,7.40
2018-05-18T21:25:16.629Z,8.30
2018-05-18T21:27:45.739Z,8.03
2018-05-18T21:30:14.835Z,9.33
2018-05-18T21:32:43.943Z,8.10
2018-05-18T21:35:13.044Z,8.30
2018-05-18T21:37:42.142Z,8.70
2018-05-18T21:40:11.237Z,8.43
2018-05-18T21:42:40.351Z,8.03
2018-05-18T21:45:09.447Z,9.00
2018-05-18T21:47:38.550Z,8.07
2018-05-18T21:50:07.646Z,9.60
2018-05-18T21:52:36.755Z,9.57
2018-05-18T21:55:05.852Z,10.43
2018-05-18T21:57:35.361Z,11.20
2018-05-18T22:00:05.500Z,11.33
2018-05-18T22:02:35.108Z,11.07
2018-05-18T22:05:04.667Z,12.73
2018-05-18T22:07:34.218Z,14.13
2018-05-18T22:10:03.732Z,12.20
2018-05-18T22:12:32.888Z,14.30
2018-05-18T22:15:01.982Z,12.60
2018-05-18T22:17:31.094Z,14.00
2018-05-18T22:20:00.178Z,12.33
2018-05-18T22:22:29.286Z,12.07
2018-05-18T22:24:58.392Z,13.97
2018-05-18T22:27:27.503Z,12.53
2018-05-18T22:29:56.594Z,11.97
2018-05-18T22:32:25.702Z,11.33
2018-05-18T22:34:54.794Z,12.30
2018-05-18T22:37:23.899Z,11.20
2018-05-18T22:39:52.998Z,14.50
2018-05-18T22:42:22.107Z,14.87
2018-05-18T22:44:51.295Z,14.30
2018-05-18T22:47:20.306Z,13.93
2018-05-18T22:49:49.411Z,13.60
2018-05-18T22:52:18.522Z,13.30
2018-05-18T22:54:47.615Z,13.23
2018-05-18T22:57:16.719Z,13.30
2018-05-18T22:59:45.813Z,11.40
2018-05-18T23:02:14.918Z,11.57
2018-05-18T23:04:44.021Z,12.83
2018-05-18T23:07:13.124Z,12.10
2018-05-18T23:09:42.229Z,12.97
2018-05-18T23:12:11.326Z,13.43
2018-05-18T23:14:40.434Z,12.40
2018-05-18T23:17:09.525Z,11.33
2018-05-18T23:19:38.635Z,10.77
2018-05-18T23:22:07.738Z,11.30
2018-05-18T23:24:36.838Z,9.87
2018-05-18T23:27:05.926Z,10.57
2018-05-18T23:29:35.034Z,10.40
2018-05-18T23:32:04.131Z,9.73
2018-05-18T23:34:33.247Z,11.40
2018-05-18T23:37:02.350Z,12.23
2018-05-18T23:39:31.471Z,11.77
2018-05-18T23:42:00.578Z,12.17
2018-05-18T23:44:29.683Z,10.80
2018-05-18T23:46:58.783Z,11.53
2018-05-18T23:49:27.890Z,11.57
2018-05-18T23:51:56.991Z,11.93
2018-05-18T23:54:26.098Z,13.17
2018-05-18T23:56:55.195Z,11.93
2018-05-18T23:59:24.298Z,11.53
